Caledonia, MN

5:28 PM CDT on August 21, 2014 (GMT -0500)
500 Nannestad Lane | Change Station
CLOSE
Current Station
Personal Weather Station
Location: Rushford, MN
Elevation: 728 ft
Nearby Weather Stations

Elev 728 ft 43.81 °N, 91.75 °W | Updated 6 minutes ago

Clear
Clear
84.7 °F
Feels Like 93 °F
N
2.2
Wind Variable Wind from West

Today
High -- | Low -- °F
--% Chance of Precip.
Yesterday
High -- | Low -- °F
Precip. -- in
6:17 AM 8:00 PM
Waning Crescent, 12% visible
Pressure 29.81 in
Visibility 10.0 miles
Clouds Clear
Heat Index 93 °F
Dew Point 75 °F
Humidity 72%
Rainfall 0.81 in
Snow Depth Not available.
UV 3 out of 12
Pollen 5.60 out of 12
Air Quality Not available.
Flu Activity Not available.
METAR KLSE 212153Z 18009KT 10SM CLR 28/22 A2984 RMK AO2 SLP095 T02830222

More Conditions Fewer Conditions

Pressure 29.81 in
Visibility 10.0 miles
Clouds Clear
Heat Index 93 °F
Dew Point 75 °F
Humidity 72%
Rainfall 0.81 in
Snow Depth Not available.
UV 3 out of 12
Pollen 5.60 out of 12
Air Quality Not available.
Flu Activity Not available.
METAR KLSE 212153Z 18009KT 10SM CLR 28/22 A2984 RMK AO2 SLP095 T02830222

More Conditions Fewer Conditions

10-Day Weather Forecast

Almanac

Astronomy

Aug. 21, 2014 Rise Set
Actual Time 6:17 AM CDT 8:00 PM CDT
Civil Twilight 5:46 AM CDT 8:30 PM CDT
Nautical Twilight 5:09 AM CDT 9:07 PM CDT
Astronomical Twilight 4:29 AM CDT 9:46 PM CDT
Moon 2:44 AM CDT 5:31 PM CDT
Length of Visible Light 14h 43m
Length of Day
13h 42m
Tomorrow will be 2m 46s shorter.
Waning Crescent, 12% of the Moon is Illuminated
Today
Waning Crescent
Aug 25
New
Sep 2
First Quarter
Sep 8
Full
Sep 15
Last Quarter

Today's Extremes

State Highs State Lows

Community

WunderPhotos

Upload Photos

1,746,038 photos uploaded!

WunderBlogs® & News

Nearby

Snow Depth

Station Depth Elevation
No new snow has been reported.

Earthquake Activity

City Distance Mag. Time & Date
No recent earthquake activity has been reported nearby.
Minimum magnitude displayed is 2.5.

Coastal Water Temperatures

Place Temperature
No Stations Reporting

Nearby Weather Stations